createdAt,value
2023-03-02T00:01:46.790Z,2.60
2023-03-02T00:04:18.828Z,2.51
2023-03-02T00:06:46.614Z,2.52
2023-03-02T00:09:14.391Z,2.42
2023-03-02T00:11:42.326Z,2.38
2023-03-02T00:14:10.208Z,2.35
2023-03-02T00:16:37.869Z,2.38
2023-03-02T00:19:07.274Z,2.35
2023-03-02T00:21:35.315Z,2.41
2023-03-02T00:24:03.019Z,2.35
2023-03-02T00:26:34.384Z,2.37
2023-03-02T00:29:02.356Z,2.38
2023-03-02T00:31:30.158Z,2.39
2023-03-02T00:33:57.894Z,2.29
2023-03-02T00:36:26.980Z,2.35
2023-03-02T00:38:54.808Z,2.31
2023-03-02T00:41:22.593Z,2.36
2023-03-02T00:43:50.839Z,2.37
2023-03-02T00:46:20.147Z,2.40
2023-03-02T00:48:48.110Z,2.31
2023-03-02T00:51:16.418Z,2.39
2023-03-02T00:53:46.119Z,2.31
2023-03-02T00:56:13.935Z,2.43
2023-03-02T00:58:41.609Z,2.38
2023-03-02T01:01:12.657Z,2.33
2023-03-02T01:03:40.845Z,2.31
2023-03-02T01:06:15.885Z,2.29
2023-03-02T01:08:45.418Z,2.31
2023-03-02T01:11:18.114Z,2.25
2023-03-02T01:13:46.455Z,2.27
2023-03-02T01:16:14.827Z,2.24
2023-03-02T01:18:42.726Z,2.22
2023-03-02T01:21:12.699Z,2.26
2023-03-02T01:23:40.346Z,2.22
2023-03-02T01:26:09.980Z,2.23
2023-03-02T01:28:37.579Z,2.27
2023-03-02T01:31:05.678Z,2.28
2023-03-02T01:33:33.454Z,2.31
2023-03-02T01:36:01.449Z,2.34
2023-03-02T01:38:29.545Z,2.33
2023-03-02T01:40:57.240Z,2.31
2023-03-02T01:43:27.058Z,2.29
2023-03-02T01:45:57.200Z,2.33
2023-03-02T01:48:29.990Z,2.25
2023-03-02T01:50:58.891Z,2.42
2023-03-02T01:53:29.538Z,2.49
2023-03-02T01:55:58.264Z,2.30
2023-03-02T01:58:29.757Z,2.36
2023-03-02T02:00:59.035Z,2.22
2023-03-02T02:03:29.834Z,2.22
2023-03-02T02:06:07.210Z,2.30
2023-03-02T02:08:35.033Z,2.29
2023-03-02T02:11:03.052Z,2.25
2023-03-02T02:13:33.262Z,2.25
2023-03-02T02:16:01.477Z,2.27
2023-03-02T02:18:29.150Z,2.23
2023-03-02T02:20:57.945Z,2.27
2023-03-02T02:23:34.732Z,2.31
2023-03-02T02:26:19.064Z,2.21
2023-03-02T02:28:57.923Z,2.22
2023-03-02T02:31:31.684Z,2.24
2023-03-02T02:34:03.951Z,2.29
2023-03-02T02:36:36.039Z,2.20
2023-03-02T02:39:07.850Z,2.31
2023-03-02T02:41:40.232Z,2.24
2023-03-02T02:44:07.953Z,2.25
2023-03-02T02:46:35.707Z,2.13
2023-03-02T02:49:04.659Z,2.23
2023-03-02T02:51:33.200Z,2.13
2023-03-02T02:54:04.715Z,2.08
2023-03-02T02:56:34.937Z,2.13
2023-03-02T02:59:08.048Z,2.10
2023-03-02T03:01:36.207Z,2.16
2023-03-02T03:04:06.504Z,2.18
2023-03-02T03:06:42.584Z,2.12
2023-03-02T03:09:12.226Z,2.16
2023-03-02T03:11:43.266Z,2.18
2023-03-02T03:14:15.305Z,2.20
2023-03-02T03:16:47.219Z,2.25
2023-03-02T03:19:19.645Z,2.26
2023-03-02T03:21:50.587Z,2.22
2023-03-02T03:24:18.633Z,2.25
2023-03-02T03:26:46.609Z,2.22
2023-03-02T03:29:17.770Z,2.17
2023-03-02T03:31:48.474Z,2.18
2023-03-02T03:34:16.231Z,2.13
2023-03-02T03:36:44.378Z,2.09
2023-03-02T03:39:13.123Z,2.16
2023-03-02T03:41:41.798Z,2.10
2023-03-02T03:44:10.391Z,2.09
2023-03-02T03:46:39.755Z,2.22
2023-03-02T03:49:07.524Z,2.13
2023-03-02T03:51:35.600Z,2.15
2023-03-02T03:54:04.118Z,2.09
2023-03-02T03:56:34.759Z,2.07
2023-03-02T03:59:07.219Z,2.13
2023-03-02T04:01:37.919Z,2.18
2023-03-02T04:04:10.104Z,2.07
2023-03-02T04:06:38.109Z,2.09
2023-03-02T04:09:06.411Z,2.04
2023-03-02T04:11:36.911Z,1.99
2023-03-02T04:14:05.390Z,1.91
2023-03-02T04:16:33.744Z,2.00
2023-03-02T04:19:02.348Z,2.04
2023-03-02T04:21:31.370Z,2.06
2023-03-02T04:23:58.987Z,1.94
2023-03-02T04:26:27.215Z,2.00
2023-03-02T04:28:54.892Z,2.12
2023-03-02T04:31:22.655Z,2.00
2023-03-02T04:33:50.342Z,2.03
2023-03-02T04:36:19.563Z,2.01
2023-03-02T04:38:48.610Z,2.00
2023-03-02T04:41:16.659Z,2.01
2023-03-02T04:43:44.441Z,2.03
2023-03-02T04:46:16.422Z,2.00
2023-03-02T04:48:44.118Z,1.97
2023-03-02T04:51:18.025Z,1.96
2023-03-02T04:53:45.790Z,1.95
2023-03-02T04:56:14.883Z,2.01
2023-03-02T04:58:42.547Z,1.92
2023-03-02T05:01:11.171Z,1.94
2023-03-02T05:03:39.020Z,1.98
2023-03-02T05:06:07.120Z,1.90
2023-03-02T05:08:35.384Z,1.96
2023-03-02T05:11:03.857Z,1.95
2023-03-02T05:13:33.135Z,1.97
2023-03-02T05:16:01.068Z,2.03
2023-03-02T05:18:28.767Z,1.94
2023-03-02T05:20:57.197Z,1.98
2023-03-02T05:23:25.952Z,2.00
2023-03-02T05:25:55.841Z,1.96
2023-03-02T05:28:24.840Z,1.94
2023-03-02T05:30:54.363Z,1.94
2023-03-02T05:33:22.396Z,1.98
2023-03-02T05:35:50.230Z,1.99
2023-03-02T05:38:18.139Z,2.06
2023-03-02T05:40:46.733Z,1.94
2023-03-02T05:43:18.459Z,1.92
2023-03-02T05:45:46.289Z,1.88
2023-03-02T05:48:15.834Z,1.91
2023-03-02T05:50:43.680Z,1.95
2023-03-02T05:53:11.520Z,1.91
2023-03-02T05:55:39.393Z,1.89
2023-03-02T05:58:09.953Z,1.92
2023-03-02T06:00:37.996Z,1.85
2023-03-02T06:03:06.124Z,1.94
2023-03-02T06:05:36.021Z,1.89
2023-03-02T06:08:04.980Z,1.92
2023-03-02T06:10:33.087Z,1.88
2023-03-02T06:13:01.112Z,1.96
2023-03-02T06:15:30.223Z,2.02
2023-03-02T06:17:58.785Z,1.92
2023-03-02T06:20:26.866Z,1.97
2023-03-02T06:22:56.158Z,1.94
2023-03-02T06:25:25.365Z,2.04
2023-03-02T06:27:53.847Z,2.05
2023-03-02T06:30:24.381Z,2.07
2023-03-02T06:32:52.379Z,2.08
2023-03-02T06:35:20.574Z,2.10
2023-03-02T06:37:48.429Z,2.26
2023-03-02T06:40:17.830Z,2.17
2023-03-02T06:42:46.107Z,2.32
2023-03-02T06:45:13.941Z,2.24
2023-03-02T06:47:41.873Z,2.39
2023-03-02T06:50:11.204Z,2.40
2023-03-02T06:52:38.908Z,2.27
2023-03-02T06:55:07.872Z,2.34
2023-03-02T06:57:36.963Z,2.42
2023-03-02T07:00:09.711Z,2.51
2023-03-02T07:02:37.689Z,2.52
2023-03-02T07:05:06.476Z,2.61
2023-03-02T07:07:34.219Z,2.59
2023-03-02T07:10:01.953Z,2.61
2023-03-02T07:12:29.687Z,2.72
2023-03-02T07:14:58.733Z,2.82
2023-03-02T07:17:26.563Z,2.77
2023-03-02T07:19:54.284Z,2.86
2023-03-02T07:22:22.088Z,2.92
2023-03-02T07:24:49.961Z,2.97
2023-03-02T07:27:17.673Z,2.99
2023-03-02T07:29:45.432Z,3.22
2023-03-02T07:32:14.501Z,3.15
2023-03-02T07:34:42.393Z,3.23
2023-03-02T07:37:10.065Z,3.41
2023-03-02T07:39:37.774Z,3.53
2023-03-02T07:42:08.742Z,3.49
2023-03-02T07:44:36.512Z,3.52
2023-03-02T07:47:04.354Z,3.62
2023-03-02T07:49:35.289Z,3.82
2023-03-02T07:52:03.276Z,3.75
2023-03-02T07:54:31.108Z,3.86
2023-03-02T07:56:59.481Z,4.06
2023-03-02T07:59:28.329Z,3.84
2023-03-02T08:01:56.535Z,4.22
2023-03-02T08:04:24.530Z,4.42
2023-03-02T08:06:53.743Z,4.46
2023-03-02T08:09:21.394Z,4.99
2023-03-02T08:11:49.040Z,5.96
2023-03-02T08:14:16.725Z,7.10
2023-03-02T08:16:44.426Z,7.58
2023-03-02T08:19:12.184Z,8.95
2023-03-02T08:21:40.008Z,8.99
2023-03-02T08:24:10.480Z,8.51
2023-03-02T08:26:38.156Z,8.20
2023-03-02T08:29:06.620Z,9.37
2023-03-02T08:31:35.085Z,9.62
2023-03-02T08:34:03.129Z,9.53
2023-03-02T08:36:31.118Z,8.22
2023-03-02T08:38:58.892Z,9.19
2023-03-02T08:41:28.083Z,9.13
2023-03-02T08:43:56.878Z,8.79
2023-03-02T08:46:24.592Z,7.71
2023-03-02T08:48:52.316Z,6.46
2023-03-02T08:51:23.018Z,7.05
2023-03-02T08:53:55.027Z,7.11
2023-03-02T08:56:25.449Z,7.11
2023-03-02T08:58:56.512Z,7.29
2023-03-02T09:01:26.243Z,6.79
2023-03-02T09:03:54.065Z,7.21
2023-03-02T09:06:21.956Z,7.47
2023-03-02T09:08:50.027Z,7.94
2023-03-02T09:11:18.319Z,7.28
2023-03-02T09:13:46.104Z,7.91
2023-03-02T09:16:15.861Z,7.10
2023-03-02T09:18:43.697Z,7.77
2023-03-02T09:21:11.395Z,7.97
2023-03-02T09:23:39.208Z,8.03
2023-03-02T09:26:07.344Z,7.54
2023-03-02T09:28:36.077Z,8.49
2023-03-02T09:31:06.714Z,7.59
2023-03-02T09:33:36.028Z,8.57
2023-03-02T09:36:06.850Z,8.32
2023-03-02T09:38:34.648Z,8.95
2023-03-02T09:41:29.297Z,8.02
2023-03-02T09:44:10.641Z,9.22
2023-03-02T09:46:47.572Z,9.51
2023-03-02T09:49:29.106Z,10.38
2023-03-02T09:52:11.589Z,9.80
2023-03-02T09:54:41.105Z,9.87
2023-03-02T09:57:20.912Z,10.93
2023-03-02T09:59:55.034Z,10.94
2023-03-02T10:02:26.603Z,10.95
2023-03-02T10:04:58.207Z,10.50
2023-03-02T10:07:29.370Z,10.39
2023-03-02T10:10:04.001Z,11.04
2023-03-02T10:12:51.493Z,11.64
2023-03-02T10:15:24.754Z,10.84
2023-03-02T10:18:01.842Z,11.94
2023-03-02T10:20:37.723Z,10.72
2023-03-02T10:23:20.753Z,10.83
2023-03-02T10:25:53.480Z,10.77
2023-03-02T10:28:23.592Z,11.62
2023-03-02T10:30:56.708Z,10.23
2023-03-02T10:33:24.883Z,11.12
2023-03-02T10:35:54.579Z,11.58
2023-03-02T10:38:24.971Z,11.74
2023-03-02T10:41:00.102Z,13.23
2023-03-02T10:43:32.762Z,13.09
2023-03-02T10:46:02.136Z,12.91
2023-03-02T10:48:30.121Z,13.85
2023-03-02T10:51:00.558Z,14.19
2023-03-02T10:53:29.032Z,13.44
2023-03-02T10:55:56.788Z,13.55
2023-03-02T10:58:27.587Z,13.94
2023-03-02T11:01:02.261Z,13.15
2023-03-02T11:03:34.489Z,12.63
2023-03-02T11:06:19.981Z,12.88
2023-03-02T11:08:47.958Z,13.91
2023-03-02T11:11:23.471Z,13.21
2023-03-02T11:13:51.281Z,13.32
2023-03-02T11:16:26.189Z,14.03
2023-03-02T11:18:58.333Z,12.47
2023-03-02T11:21:35.603Z,12.52
2023-03-02T11:24:10.594Z,13.41
2023-03-02T11:26:44.422Z,13.38
2023-03-02T11:29:23.071Z,11.63
2023-03-02T11:31:54.416Z,11.68
2023-03-02T11:34:30.259Z,12.66
2023-03-02T11:37:11.040Z,13.06
2023-03-02T11:39:56.060Z,12.97
2023-03-02T11:42:29.600Z,13.26
2023-03-02T11:44:57.872Z,13.02
2023-03-02T11:47:25.858Z,13.85
2023-03-02T11:49:56.387Z,13.17
2023-03-02T11:52:29.323Z,14.67
2023-03-02T11:55:01.778Z,13.67
2023-03-02T11:57:34.296Z,14.11
2023-03-02T12:00:04.471Z,14.52
2023-03-02T12:02:32.113Z,14.05
2023-03-02T12:05:04.169Z,14.40
2023-03-02T12:07:33.714Z,15.26
2023-03-02T12:10:05.297Z,16.05
2023-03-02T12:12:36.958Z,18.00
2023-03-02T12:15:05.526Z,16.33
2023-03-02T12:17:35.464Z,17.23
2023-03-02T12:20:23.325Z,16.86
2023-03-02T12:22:52.392Z,17.13
2023-03-02T12:25:30.367Z,16.92
2023-03-02T12:27:58.084Z,16.16
2023-03-02T12:30:27.983Z,16.98
2023-03-02T12:33:06.116Z,15.14
2023-03-02T12:35:35.586Z,16.67
2023-03-02T12:38:08.254Z,16.85
2023-03-02T12:40:45.921Z,16.48
2023-03-02T12:43:22.093Z,17.05
2023-03-02T12:46:05.126Z,15.55
2023-03-02T12:48:42.629Z,17.02
2023-03-02T12:51:17.853Z,16.83
2023-03-02T12:53:47.168Z,15.81
2023-03-02T12:56:23.979Z,16.25
2023-03-02T12:58:53.464Z,15.22
2023-03-02T13:01:25.214Z,14.46
2023-03-02T13:03:54.047Z,15.50
2023-03-02T13:06:24.107Z,15.21
2023-03-02T13:08:56.929Z,16.10
2023-03-02T13:11:28.373Z,14.75
2023-03-02T13:13:56.495Z,14.51
2023-03-02T13:16:27.302Z,14.49
2023-03-02T13:18:57.630Z,14.03
2023-03-02T13:21:32.445Z,13.74
2023-03-02T13:24:02.458Z,13.70
2023-03-02T13:26:32.801Z,13.44
2023-03-02T13:29:07.694Z,13.39
2023-03-02T13:31:36.039Z,13.80
2023-03-02T13:34:03.850Z,14.08
2023-03-02T13:36:37.382Z,13.82
2023-03-02T13:39:09.030Z,13.30
2023-03-02T13:41:40.670Z,12.52
2023-03-02T13:44:20.476Z,13.09
2023-03-02T13:46:48.871Z,13.00
2023-03-02T13:49:27.960Z,13.79
2023-03-02T13:52:02.076Z,13.66
2023-03-02T13:54:33.129Z,13.48
2023-03-02T13:57:03.167Z,13.47
2023-03-02T13:59:32.405Z,12.89
2023-03-02T14:02:01.083Z,12.87
2023-03-02T14:04:28.815Z,12.69
2023-03-02T14:06:56.551Z,12.78
2023-03-02T14:09:24.847Z,12.33
2023-03-02T14:11:56.103Z,12.36
2023-03-02T14:14:26.027Z,12.39
2023-03-02T14:16:53.695Z,12.11
2023-03-02T14:19:22.356Z,12.33
2023-03-02T14:21:49.976Z,12.41
2023-03-02T14:24:17.677Z,12.36
2023-03-02T14:26:47.356Z,12.55
2023-03-02T14:29:23.069Z,12.37
2023-03-02T14:31:50.883Z,12.58
2023-03-02T14:34:18.927Z,12.01
2023-03-02T14:36:49.991Z,12.41
2023-03-02T14:39:22.938Z,12.24
2023-03-02T14:41:54.141Z,11.75
2023-03-02T14:44:24.155Z,11.98
2023-03-02T14:46:52.892Z,12.04
2023-03-02T14:49:20.750Z,12.00
2023-03-02T14:51:56.755Z,12.12
2023-03-02T14:54:25.016Z,12.05
2023-03-02T14:56:53.223Z,12.00
2023-03-02T14:59:20.908Z,11.92
2023-03-02T15:01:50.045Z,11.96
2023-03-02T15:04:17.823Z,12.08
2023-03-02T15:06:47.455Z,12.02
2023-03-02T15:09:15.547Z,12.28
2023-03-02T15:11:43.343Z,12.20
2023-03-02T15:14:11.089Z,11.82
2023-03-02T15:16:38.773Z,11.83
2023-03-02T15:19:07.870Z,11.93
2023-03-02T15:21:35.675Z,11.85
2023-03-02T15:24:03.412Z,11.78
2023-03-02T15:26:31.129Z,11.87
2023-03-02T15:28:58.760Z,11.80
2023-03-02T15:31:28.172Z,11.90
2023-03-02T15:33:56.459Z,11.72
2023-03-02T15:36:26.345Z,11.80
2023-03-02T15:38:55.057Z,11.72
2023-03-02T15:41:22.845Z,11.60
2023-03-02T15:43:51.156Z,11.47
2023-03-02T15:46:19.068Z,11.43
2023-03-02T15:48:46.802Z,11.43
2023-03-02T15:51:14.810Z,11.52
2023-03-02T15:53:43.804Z,11.36
2023-03-02T15:56:13.767Z,11.46
2023-03-02T15:58:41.850Z,11.42
2023-03-02T16:01:11.342Z,11.48
2023-03-02T16:03:39.359Z,11.41
2023-03-02T16:06:08.666Z,11.39
2023-03-02T16:08:36.775Z,11.16
2023-03-02T16:11:07.744Z,11.04
2023-03-02T16:13:36.258Z,10.99
2023-03-02T16:16:04.837Z,10.93
2023-03-02T16:18:32.806Z,10.91
2023-03-02T16:21:02.404Z,10.83
2023-03-02T16:23:30.047Z,10.94
2023-03-02T16:26:08.973Z,10.77
2023-03-02T16:28:37.223Z,10.71
2023-03-02T16:31:05.823Z,10.64
2023-03-02T16:33:33.857Z,10.59
2023-03-02T16:36:01.563Z,10.51
2023-03-02T16:38:29.267Z,10.48
2023-03-02T16:40:57.315Z,10.41
2023-03-02T16:43:26.576Z,10.35
2023-03-02T16:45:54.341Z,10.26
2023-03-02T16:48:22.513Z,10.31
2023-03-02T16:51:00.034Z,10.21
2023-03-02T16:53:27.835Z,10.19
2023-03-02T16:55:55.645Z,10.13
2023-03-02T16:58:23.376Z,10.13
2023-03-02T17:00:52.538Z,10.19
2023-03-02T17:03:20.333Z,10.04
2023-03-02T17:05:48.083Z,9.90
2023-03-02T17:08:16.638Z,9.82
2023-03-02T17:10:44.980Z,9.80
2023-03-02T17:13:15.455Z,9.74
2023-03-02T17:15:43.752Z,9.68
2023-03-02T17:18:13.046Z,9.62
2023-03-02T17:20:41.001Z,9.67
2023-03-02T17:23:11.773Z,9.51
2023-03-02T17:25:40.040Z,9.52
2023-03-02T17:28:07.809Z,9.47
2023-03-02T17:30:35.720Z,9.41
2023-03-02T17:33:03.427Z,9.36
2023-03-02T17:35:32.499Z,9.37
2023-03-02T17:38:00.264Z,9.34
2023-03-02T17:40:28.135Z,9.23
2023-03-02T17:42:57.755Z,9.19
2023-03-02T17:45:28.686Z,9.18
2023-03-02T17:47:58.883Z,9.17
2023-03-02T17:50:30.310Z,9.21
2023-03-02T17:52:59.764Z,9.10
2023-03-02T17:55:27.862Z,9.01
2023-03-02T17:57:55.777Z,8.95
2023-03-02T18:00:24.824Z,8.97
2023-03-02T18:02:53.236Z,8.86
2023-03-02T18:05:21.817Z,8.85
2023-03-02T18:07:51.571Z,8.77
2023-03-02T18:10:20.943Z,8.77
2023-03-02T18:12:51.679Z,8.74
2023-03-02T18:15:20.860Z,8.73
2023-03-02T18:17:48.479Z,8.71
2023-03-02T18:20:16.734Z,8.71
2023-03-02T18:22:44.560Z,8.69
2023-03-02T18:25:12.284Z,8.56
2023-03-02T18:27:41.482Z,8.55
2023-03-02T18:30:10.755Z,8.56
2023-03-02T18:32:38.553Z,8.52
2023-03-02T18:35:07.097Z,8.42
2023-03-02T18:37:35.014Z,8.40
2023-03-02T18:40:03.317Z,8.38
2023-03-02T18:42:31.342Z,8.32
2023-03-02T18:45:00.691Z,8.34
2023-03-02T18:47:28.429Z,8.29
2023-03-02T18:49:57.269Z,8.23
2023-03-02T18:52:25.007Z,8.11
2023-03-02T18:54:57.365Z,8.02
2023-03-02T18:57:25.398Z,8.01
2023-03-02T18:59:53.353Z,8.02
2023-03-02T19:02:22.538Z,7.93
2023-03-02T19:04:50.303Z,7.89
2023-03-02T19:07:18.083Z,7.78
2023-03-02T19:09:45.760Z,7.78
2023-03-02T19:12:13.499Z,7.75
2023-03-02T19:14:42.734Z,7.76
2023-03-02T19:17:10.634Z,7.71
2023-03-02T19:19:41.896Z,7.61
2023-03-02T19:22:11.119Z,7.52
2023-03-02T19:24:40.469Z,7.47
2023-03-02T19:27:10.353Z,7.34
2023-03-02T19:29:40.112Z,7.23
2023-03-02T19:32:11.061Z,7.09
2023-03-02T19:34:41.869Z,7.02
2023-03-02T19:37:09.708Z,6.96
2023-03-02T19:39:37.696Z,6.87
2023-03-02T19:42:06.012Z,6.87
2023-03-02T19:44:34.365Z,6.71
2023-03-02T19:47:02.161Z,6.43
2023-03-02T19:49:29.967Z,6.42
2023-03-02T19:52:00.682Z,6.29
2023-03-02T19:54:28.970Z,6.17
2023-03-02T19:56:56.766Z,6.05
2023-03-02T19:59:25.459Z,5.99
2023-03-02T20:01:55.137Z,5.88
2023-03-02T20:04:23.213Z,5.87
2023-03-02T20:06:50.935Z,5.90
2023-03-02T20:09:20.462Z,5.90
2023-03-02T20:11:48.599Z,5.92
2023-03-02T20:14:31.372Z,5.84
2023-03-02T20:17:00.899Z,5.77
2023-03-02T20:19:29.076Z,5.77
2023-03-02T20:21:56.838Z,5.76
2023-03-02T20:24:26.022Z,5.74
2023-03-02T20:26:53.808Z,5.67
2023-03-02T20:29:21.637Z,5.66
2023-03-02T20:31:49.563Z,5.55
2023-03-02T20:34:17.638Z,5.50
2023-03-02T20:36:46.010Z,5.49
2023-03-02T20:39:17.563Z,5.50
2023-03-02T20:41:46.798Z,5.44
2023-03-02T20:44:15.034Z,5.40
2023-03-02T20:46:45.015Z,5.34
2023-03-02T20:49:15.446Z,5.30
2023-03-02T20:51:53.026Z,5.19
2023-03-02T20:54:22.340Z,5.11
2023-03-02T20:56:52.135Z,5.07
2023-03-02T20:59:20.108Z,5.08
2023-03-02T21:01:48.029Z,5.06
2023-03-02T21:04:15.928Z,5.01
2023-03-02T21:06:44.626Z,4.88
2023-03-02T21:09:12.615Z,4.92
2023-03-02T21:11:40.792Z,4.89
2023-03-02T21:14:10.603Z,4.79
2023-03-02T21:16:40.126Z,4.70
2023-03-02T21:19:10.593Z,4.68
2023-03-02T21:21:41.754Z,4.62
2023-03-02T21:24:10.985Z,4.60
2023-03-02T21:26:39.272Z,4.56
2023-03-02T21:29:09.445Z,4.47
2023-03-02T21:31:38.690Z,4.45
2023-03-02T21:34:06.449Z,4.46
2023-03-02T21:36:34.242Z,4.40
2023-03-02T21:39:02.082Z,4.38
2023-03-02T21:41:30.681Z,4.29
2023-03-02T21:43:58.460Z,4.31
2023-03-02T21:46:26.365Z,4.32
2023-03-02T21:48:55.512Z,4.26
2023-03-02T21:51:23.479Z,4.26
2023-03-02T21:53:52.903Z,4.19
2023-03-02T21:56:23.007Z,4.13
2023-03-02T21:58:51.797Z,4.15
2023-03-02T22:01:20.838Z,4.10
2023-03-02T22:03:49.094Z,4.15
2023-03-02T22:06:20.573Z,4.06
2023-03-02T22:08:48.594Z,4.06
2023-03-02T22:11:21.619Z,3.92
2023-03-02T22:13:50.960Z,3.95
2023-03-02T22:16:20.377Z,3.86
2023-03-02T22:18:49.933Z,3.87
2023-03-02T22:21:37.130Z,3.84
2023-03-02T22:24:19.086Z,3.81
2023-03-02T22:26:48.783Z,3.81
2023-03-02T22:29:19.429Z,3.80
2023-03-02T22:31:50.070Z,3.77
2023-03-02T22:34:23.436Z,3.75
2023-03-02T22:36:52.756Z,3.67
2023-03-02T22:39:29.304Z,3.68
2023-03-02T22:42:06.165Z,3.70
2023-03-02T22:44:34.344Z,3.58
2023-03-02T22:47:02.899Z,3.58
2023-03-02T22:49:30.718Z,3.51
2023-03-02T22:52:02.570Z,3.47
2023-03-02T22:54:37.150Z,3.48
2023-03-02T22:57:07.089Z,3.36
2023-03-02T22:59:37.791Z,3.34
2023-03-02T23:02:15.868Z,3.26
2023-03-02T23:04:43.581Z,3.25
2023-03-02T23:07:19.005Z,3.22
2023-03-02T23:09:47.348Z,3.22
2023-03-02T23:12:19.369Z,3.24
2023-03-02T23:14:50.006Z,3.18
2023-03-02T23:17:21.585Z,3.05
2023-03-02T23:19:50.955Z,3.11
2023-03-02T23:22:20.206Z,3.02
2023-03-02T23:24:47.946Z,2.98
2023-03-02T23:27:15.661Z,2.94
2023-03-02T23:29:43.402Z,2.94
2023-03-02T23:32:11.473Z,2.83
2023-03-02T23:34:39.479Z,2.94
2023-03-02T23:37:07.192Z,2.93
2023-03-02T23:39:36.196Z,2.91
2023-03-02T23:42:03.903Z,2.89
2023-03-02T23:44:31.565Z,2.88
2023-03-02T23:46:59.421Z,2.82
2023-03-02T23:49:27.047Z,2.70
2023-03-02T23:51:54.746Z,2.62
2023-03-02T23:54:22.448Z,2.55
2023-03-02T23:56:51.521Z,2.49
2023-03-02T23:59:19.351Z,2.39
